sensor_id;sensor_type;location;lat;lon;timestamp;P1;durP1;ratioP1;P2;durP2;ratioP2
31978;SDS011;18502;43.574;1.276;2022-10-16T00:01:26;16.80;;;8.07;;
31978;SDS011;18502;43.574;1.276;2022-10-16T00:03:54;8.95;;;7.45;;
31978;SDS011;18502;43.574;1.276;2022-10-16T00:06:21;10.45;;;6.65;;
31978;SDS011;18502;43.574;1.276;2022-10-16T00:08:47;9.25;;;7.30;;
31978;SDS011;18502;43.574;1.276;2022-10-16T00:11:20;12.02;;;8.15;;
31978;SDS011;18502;43.574;1.276;2022-10-16T00:13:48;12.65;;;8.35;;
31978;SDS011;18502;43.574;1.276;2022-10-16T00:16:15;13.68;;;8.63;;
31978;SDS011;18502;43.574;1.276;2022-10-16T00:18:42;11.00;;;8.48;;
31978;SDS011;18502;43.574;1.276;2022-10-16T00:21:18;14.15;;;9.18;;
31978;SDS011;18502;43.574;1.276;2022-10-16T00:23:46;9.88;;;7.30;;
31978;SDS011;18502;43.574;1.276;2022-10-16T00:26:16;12.98;;;7.95;;
31978;SDS011;18502;43.574;1.276;2022-10-16T00:28:45;12.05;;;8.52;;
31978;SDS011;18502;43.574;1.276;2022-10-16T00:31:11;14.90;;;8.93;;
31978;SDS011;18502;43.574;1.276;2022-10-16T00:33:38;12.32;;;8.95;;
31978;SDS011;18502;43.574;1.276;2022-10-16T00:36:04;14.60;;;9.10;;
31978;SDS011;18502;43.574;1.276;2022-10-16T00:38:31;11.77;;;8.80;;
31978;SDS011;18502;43.574;1.276;2022-10-16T00:40:57;13.05;;;9.02;;
31978;SDS011;18502;43.574;1.276;2022-10-16T00:48:39;13.55;;;8.68;;
31978;SDS011;18502;43.574;1.276;2022-10-16T00:51:06;16.35;;;9.95;;
31978;SDS011;18502;43.574;1.276;2022-10-16T00:53:33;11.85;;;9.23;;
31978;SDS011;18502;43.574;1.276;2022-10-16T00:55:59;14.63;;;8.80;;
31978;SDS011;18502;43.574;1.276;2022-10-16T00:58:26;10.70;;;8.82;;
31978;SDS011;18502;43.574;1.276;2022-10-16T01:00:51;14.13;;;9.50;;
31978;SDS011;18502;43.574;1.276;2022-10-16T01:06:02;12.73;;;8.13;;
31978;SDS011;18502;43.574;1.276;2022-10-16T01:08:34;15.20;;;8.95;;
31978;SDS011;18502;43.574;1.276;2022-10-16T01:11:13;13.43;;;8.85;;
31978;SDS011;18502;43.574;1.276;2022-10-16T01:13:53;13.57;;;8.90;;
31978;SDS011;18502;43.574;1.276;2022-10-16T01:16:29;20.08;;;9.52;;
31978;SDS011;18502;43.574;1.276;2022-10-16T01:21:44;15.52;;;8.98;;
31978;SDS011;18502;43.574;1.276;2022-10-16T01:24:17;14.27;;;8.18;;
31978;SDS011;18502;43.574;1.276;2022-10-16T01:27:09;13.73;;;9.48;;
31978;SDS011;18502;43.574;1.276;2022-10-16T01:32:33;11.27;;;8.43;;
31978;SDS011;18502;43.574;1.276;2022-10-16T01:35:24;12.15;;;8.52;;
31978;SDS011;18502;43.574;1.276;2022-10-16T01:40:25;11.82;;;8.27;;
31978;SDS011;18502;43.574;1.276;2022-10-16T01:42:53;14.77;;;8.77;;
31978;SDS011;18502;43.574;1.276;2022-10-16T01:45:40;11.40;;;8.73;;
31978;SDS011;18502;43.574;1.276;2022-10-16T01:48:09;14.73;;;8.48;;
31978;SDS011;18502;43.574;1.276;2022-10-16T01:50:38;11.85;;;8.27;;
31978;SDS011;18502;43.574;1.276;2022-10-16T01:53:07;11.95;;;8.57;;
31978;SDS011;18502;43.574;1.276;2022-10-16T01:55:38;12.20;;;9.25;;
31978;SDS011;18502;43.574;1.276;2022-10-16T01:58:10;12.60;;;8.23;;
31978;SDS011;18502;43.574;1.276;2022-10-16T02:00:38;15.38;;;9.18;;
31978;SDS011;18502;43.574;1.276;2022-10-16T02:03:07;12.38;;;7.05;;
31978;SDS011;18502;43.574;1.276;2022-10-16T02:05:38;12.27;;;7.80;;
31978;SDS011;18502;43.574;1.276;2022-10-16T02:08:16;13.00;;;8.98;;
31978;SDS011;18502;43.574;1.276;2022-10-16T02:10:42;14.80;;;8.48;;
31978;SDS011;18502;43.574;1.276;2022-10-16T02:13:29;14.02;;;8.45;;
31978;SDS011;18502;43.574;1.276;2022-10-16T02:15:58;14.32;;;8.57;;
31978;SDS011;18502;43.574;1.276;2022-10-16T02:18:24;12.85;;;8.35;;
31978;SDS011;18502;43.574;1.276;2022-10-16T02:20:58;12.35;;;8.70;;
31978;SDS011;18502;43.574;1.276;2022-10-16T02:26:03;13.07;;;9.32;;
31978;SDS011;18502;43.574;1.276;2022-10-16T02:29:08;15.98;;;10.15;;
31978;SDS011;18502;43.574;1.276;2022-10-16T02:31:31;14.52;;;9.57;;
31978;SDS011;18502;43.574;1.276;2022-10-16T02:33:59;16.00;;;9.98;;
31978;SDS011;18502;43.574;1.276;2022-10-16T02:36:30;15.02;;;10.40;;
31978;SDS011;18502;43.574;1.276;2022-10-16T02:38:57;18.88;;;10.93;;
31978;SDS011;18502;43.574;1.276;2022-10-16T02:41:25;21.13;;;10.65;;
31978;SDS011;18502;43.574;1.276;2022-10-16T02:43:51;16.35;;;11.05;;
31978;SDS011;18502;43.574;1.276;2022-10-16T02:46:17;15.65;;;10.77;;
31978;SDS011;18502;43.574;1.276;2022-10-16T02:48:43;14.98;;;11.25;;
31978;SDS011;18502;43.574;1.276;2022-10-16T02:51:09;23.63;;;10.98;;
31978;SDS011;18502;43.574;1.276;2022-10-16T02:53:34;17.27;;;11.02;;
31978;SDS011;18502;43.574;1.276;2022-10-16T02:56:00;15.52;;;11.02;;
31978;SDS011;18502;43.574;1.276;2022-10-16T02:58:26;18.38;;;11.68;;
31978;SDS011;18502;43.574;1.276;2022-10-16T03:00:52;18.10;;;11.35;;
31978;SDS011;18502;43.574;1.276;2022-10-16T03:03:18;15.15;;;10.90;;
31978;SDS011;18502;43.574;1.276;2022-10-16T03:05:43;17.25;;;10.45;;
31978;SDS011;18502;43.574;1.276;2022-10-16T03:08:11;17.00;;;11.68;;
31978;SDS011;18502;43.574;1.276;2022-10-16T03:10:37;14.52;;;10.85;;
31978;SDS011;18502;43.574;1.276;2022-10-16T03:13:02;20.20;;;12.07;;
31978;SDS011;18502;43.574;1.276;2022-10-16T03:15:28;20.65;;;12.50;;
31978;SDS011;18502;43.574;1.276;2022-10-16T03:17:54;15.10;;;10.82;;
31978;SDS011;18502;43.574;1.276;2022-10-16T03:20:22;19.15;;;10.50;;
31978;SDS011;18502;43.574;1.276;2022-10-16T03:22:47;16.05;;;11.52;;
31978;SDS011;18502;43.574;1.276;2022-10-16T03:25:13;18.27;;;11.52;;
31978;SDS011;18502;43.574;1.276;2022-10-16T03:27:39;22.10;;;11.98;;
31978;SDS011;18502;43.574;1.276;2022-10-16T03:30:05;21.27;;;12.82;;
31978;SDS011;18502;43.574;1.276;2022-10-16T03:32:31;21.45;;;13.07;;
31978;SDS011;18502;43.574;1.276;2022-10-16T03:34:56;18.58;;;12.20;;
31978;SDS011;18502;43.574;1.276;2022-10-16T03:37:22;19.48;;;11.32;;
31978;SDS011;18502;43.574;1.276;2022-10-16T03:39:48;19.17;;;12.50;;
31978;SDS011;18502;43.574;1.276;2022-10-16T03:42:14;18.27;;;13.05;;
31978;SDS011;18502;43.574;1.276;2022-10-16T03:44:39;22.05;;;13.80;;
31978;SDS011;18502;43.574;1.276;2022-10-16T03:47:05;21.83;;;13.63;;
31978;SDS011;18502;43.574;1.276;2022-10-16T03:49:31;20.58;;;13.48;;
31978;SDS011;18502;43.574;1.276;2022-10-16T03:51:56;18.58;;;12.07;;
31978;SDS011;18502;43.574;1.276;2022-10-16T03:54:22;20.92;;;12.45;;
31978;SDS011;18502;43.574;1.276;2022-10-16T03:56:48;15.75;;;11.15;;
31978;SDS011;18502;43.574;1.276;2022-10-16T03:59:13;21.58;;;11.45;;
31978;SDS011;18502;43.574;1.276;2022-10-16T04:01:39;21.23;;;13.40;;
31978;SDS011;18502;43.574;1.276;2022-10-16T04:04:05;20.23;;;13.27;;
31978;SDS011;18502;43.574;1.276;2022-10-16T04:06:31;19.58;;;12.27;;
31978;SDS011;18502;43.574;1.276;2022-10-16T04:08:56;17.42;;;13.30;;
31978;SDS011;18502;43.574;1.276;2022-10-16T04:11:22;21.75;;;13.13;;
31978;SDS011;18502;43.574;1.276;2022-10-16T04:13:48;20.77;;;12.55;;
31978;SDS011;18502;43.574;1.276;2022-10-16T04:16:13;20.52;;;12.48;;
31978;SDS011;18502;43.574;1.276;2022-10-16T04:18:39;18.00;;;12.68;;
31978;SDS011;18502;43.574;1.276;2022-10-16T04:21:05;19.02;;;12.85;;
31978;SDS011;18502;43.574;1.276;2022-10-16T04:23:31;19.00;;;13.40;;
31978;SDS011;18502;43.574;1.276;2022-10-16T04:25:57;18.58;;;11.52;;
31978;SDS011;18502;43.574;1.276;2022-10-16T04:28:23;19.92;;;12.40;;
31978;SDS011;18502;43.574;1.276;2022-10-16T04:30:49;16.98;;;12.25;;
31978;SDS011;18502;43.574;1.276;2022-10-16T04:33:14;17.98;;;12.18;;
31978;SDS011;18502;43.574;1.276;2022-10-16T04:35:40;18.23;;;12.35;;
31978;SDS011;18502;43.574;1.276;2022-10-16T04:38:06;18.48;;;12.18;;
31978;SDS011;18502;43.574;1.276;2022-10-16T04:40:31;20.52;;;11.65;;
31978;SDS011;18502;43.574;1.276;2022-10-16T04:43:03;20.42;;;13.43;;
31978;SDS011;18502;43.574;1.276;2022-10-16T04:45:29;19.30;;;12.43;;
31978;SDS011;18502;43.574;1.276;2022-10-16T04:47:58;22.23;;;11.68;;
31978;SDS011;18502;43.574;1.276;2022-10-16T04:50:24;18.85;;;13.38;;
31978;SDS011;18502;43.574;1.276;2022-10-16T04:52:50;20.00;;;12.55;;
31978;SDS011;18502;43.574;1.276;2022-10-16T04:55:16;24.20;;;12.02;;
31978;SDS011;18502;43.574;1.276;2022-10-16T04:57:41;18.02;;;11.77;;
31978;SDS011;18502;43.574;1.276;2022-10-16T05:00:07;20.38;;;13.13;;
31978;SDS011;18502;43.574;1.276;2022-10-16T05:02:34;23.60;;;13.25;;
31978;SDS011;18502;43.574;1.276;2022-10-16T05:04:59;18.90;;;11.38;;
31978;SDS011;18502;43.574;1.276;2022-10-16T05:07:25;22.50;;;13.07;;
31978;SDS011;18502;43.574;1.276;2022-10-16T05:09:51;20.30;;;12.75;;
31978;SDS011;18502;43.574;1.276;2022-10-16T05:12:17;21.90;;;11.52;;
31978;SDS011;18502;43.574;1.276;2022-10-16T05:14:42;27.13;;;12.88;;
31978;SDS011;18502;43.574;1.276;2022-10-16T05:17:08;17.30;;;12.65;;
31978;SDS011;18502;43.574;1.276;2022-10-16T05:19:34;21.33;;;13.32;;
31978;SDS011;18502;43.574;1.276;2022-10-16T05:21:59;18.20;;;11.30;;
31978;SDS011;18502;43.574;1.276;2022-10-16T05:24:25;19.52;;;11.73;;
31978;SDS011;18502;43.574;1.276;2022-10-16T05:26:51;18.15;;;11.82;;
31978;SDS011;18502;43.574;1.276;2022-10-16T05:29:17;19.50;;;10.95;;
31978;SDS011;18502;43.574;1.276;2022-10-16T05:31:43;19.23;;;13.23;;
31978;SDS011;18502;43.574;1.276;2022-10-16T05:34:09;17.73;;;11.45;;
31978;SDS011;18502;43.574;1.276;2022-10-16T05:36:35;25.45;;;11.98;;
31978;SDS011;18502;43.574;1.276;2022-10-16T05:39:01;23.63;;;12.95;;
31978;SDS011;18502;43.574;1.276;2022-10-16T05:41:26;23.05;;;13.00;;
31978;SDS011;18502;43.574;1.276;2022-10-16T05:43:52;18.05;;;11.32;;
31978;SDS011;18502;43.574;1.276;2022-10-16T05:46:18;20.42;;;11.40;;
31978;SDS011;18502;43.574;1.276;2022-10-16T05:48:44;21.70;;;11.55;;
31978;SDS011;18502;43.574;1.276;2022-10-16T05:51:11;17.92;;;11.63;;
31978;SDS011;18502;43.574;1.276;2022-10-16T05:53:38;23.05;;;12.82;;
31978;SDS011;18502;43.574;1.276;2022-10-16T05:56:05;26.08;;;12.07;;
31978;SDS011;18502;43.574;1.276;2022-10-16T05:58:33;22.52;;;11.98;;
31978;SDS011;18502;43.574;1.276;2022-10-16T06:01:02;16.50;;;10.75;;
31978;SDS011;18502;43.574;1.276;2022-10-16T06:03:32;18.13;;;11.10;;
31978;SDS011;18502;43.574;1.276;2022-10-16T06:05:58;17.90;;;11.98;;
31978;SDS011;18502;43.574;1.276;2022-10-16T06:08:24;23.80;;;12.73;;
31978;SDS011;18502;43.574;1.276;2022-10-16T06:10:59;17.58;;;11.75;;
31978;SDS011;18502;43.574;1.276;2022-10-16T06:13:29;18.98;;;11.75;;
31978;SDS011;18502;43.574;1.276;2022-10-16T06:15:56;21.38;;;12.07;;
31978;SDS011;18502;43.574;1.276;2022-10-16T06:18:24;26.25;;;12.70;;
31978;SDS011;18502;43.574;1.276;2022-10-16T06:20:50;25.55;;;12.07;;
31978;SDS011;18502;43.574;1.276;2022-10-16T06:25:41;18.52;;;10.63;;
31978;SDS011;18502;43.574;1.276;2022-10-16T06:28:07;15.52;;;11.20;;
31978;SDS011;18502;43.574;1.276;2022-10-16T06:30:32;22.60;;;12.23;;
31978;SDS011;18502;43.574;1.276;2022-10-16T06:32:58;21.55;;;11.65;;
31978;SDS011;18502;43.574;1.276;2022-10-16T06:35:24;25.30;;;11.68;;
31978;SDS011;18502;43.574;1.276;2022-10-16T06:37:49;19.38;;;10.95;;
31978;SDS011;18502;43.574;1.276;2022-10-16T06:40:15;17.38;;;10.77;;
31978;SDS011;18502;43.574;1.276;2022-10-16T06:42:41;21.48;;;11.10;;
31978;SDS011;18502;43.574;1.276;2022-10-16T06:45:07;16.10;;;11.32;;
31978;SDS011;18502;43.574;1.276;2022-10-16T06:47:33;23.90;;;12.60;;
31978;SDS011;18502;43.574;1.276;2022-10-16T06:49:58;21.52;;;12.15;;
31978;SDS011;18502;43.574;1.276;2022-10-16T06:52:24;21.55;;;11.90;;
31978;SDS011;18502;43.574;1.276;2022-10-16T06:54:52;16.80;;;11.00;;
31978;SDS011;18502;43.574;1.276;2022-10-16T06:57:18;14.30;;;10.15;;
31978;SDS011;18502;43.574;1.276;2022-10-16T06:59:43;16.40;;;11.95;;
31978;SDS011;18502;43.574;1.276;2022-10-16T07:02:09;16.20;;;10.45;;
31978;SDS011;18502;43.574;1.276;2022-10-16T07:04:35;18.73;;;11.65;;
31978;SDS011;18502;43.574;1.276;2022-10-16T07:07:01;19.35;;;10.32;;
31978;SDS011;18502;43.574;1.276;2022-10-16T07:09:27;18.80;;;12.05;;
31978;SDS011;18502;43.574;1.276;2022-10-16T07:11:53;21.33;;;12.60;;
31978;SDS011;18502;43.574;1.276;2022-10-16T07:14:19;19.13;;;12.38;;
31978;SDS011;18502;43.574;1.276;2022-10-16T07:16:46;16.90;;;11.55;;
31978;SDS011;18502;43.574;1.276;2022-10-16T07:19:13;16.17;;;10.02;;
31978;SDS011;18502;43.574;1.276;2022-10-16T07:21:40;17.55;;;11.65;;
31978;SDS011;18502;43.574;1.276;2022-10-16T07:24:10;20.52;;;11.77;;
31978;SDS011;18502;43.574;1.276;2022-10-16T07:26:38;18.80;;;10.85;;
31978;SDS011;18502;43.574;1.276;2022-10-16T07:29:04;16.75;;;10.52;;
31978;SDS011;18502;43.574;1.276;2022-10-16T07:31:32;17.38;;;11.43;;
31978;SDS011;18502;43.574;1.276;2022-10-16T07:33:58;20.92;;;11.80;;
31978;SDS011;18502;43.574;1.276;2022-10-16T07:36:25;18.23;;;12.48;;
31978;SDS011;18502;43.574;1.276;2022-10-16T07:38:51;19.30;;;10.93;;
31978;SDS011;18502;43.574;1.276;2022-10-16T07:41:17;18.35;;;9.48;;
31978;SDS011;18502;43.574;1.276;2022-10-16T07:43:53;15.27;;;10.65;;
31978;SDS011;18502;43.574;1.276;2022-10-16T07:46:20;17.92;;;10.68;;
31978;SDS011;18502;43.574;1.276;2022-10-16T07:48:47;15.85;;;10.57;;
31978;SDS011;18502;43.574;1.276;2022-10-16T07:51:14;18.95;;;10.15;;
31978;SDS011;18502;43.574;1.276;2022-10-16T07:53:41;14.15;;;9.45;;
31978;SDS011;18502;43.574;1.276;2022-10-16T07:56:07;16.40;;;9.95;;
31978;SDS011;18502;43.574;1.276;2022-10-16T07:58:34;14.80;;;9.10;;
31978;SDS011;18502;43.574;1.276;2022-10-16T08:01:05;17.45;;;10.05;;
31978;SDS011;18502;43.574;1.276;2022-10-16T08:03:33;15.00;;;9.27;;
31978;SDS011;18502;43.574;1.276;2022-10-16T08:05:59;11.55;;;8.75;;
31978;SDS011;18502;43.574;1.276;2022-10-16T08:08:25;9.70;;;7.20;;
31978;SDS011;18502;43.574;1.276;2022-10-16T08:10:51;13.30;;;8.45;;
31978;SDS011;18502;43.574;1.276;2022-10-16T08:13:17;10.77;;;8.23;;
31978;SDS011;18502;43.574;1.276;2022-10-16T08:15:43;10.15;;;7.50;;
31978;SDS011;18502;43.574;1.276;2022-10-16T08:18:10;10.77;;;7.85;;
31978;SDS011;18502;43.574;1.276;2022-10-16T08:20:37;8.45;;;7.05;;
31978;SDS011;18502;43.574;1.276;2022-10-16T08:23:03;10.50;;;7.10;;
31978;SDS011;18502;43.574;1.276;2022-10-16T08:25:29;12.38;;;7.25;;
31978;SDS011;18502;43.574;1.276;2022-10-16T08:27:55;9.95;;;6.90;;
31978;SDS011;18502;43.574;1.276;2022-10-16T08:30:22;8.07;;;5.78;;
31978;SDS011;18502;43.574;1.276;2022-10-16T08:32:48;8.20;;;6.43;;
31978;SDS011;18502;43.574;1.276;2022-10-16T08:35:14;9.43;;;6.32;;
31978;SDS011;18502;43.574;1.276;2022-10-16T08:37:41;8.65;;;6.30;;
31978;SDS011;18502;43.574;1.276;2022-10-16T08:40:12;6.95;;;5.63;;
31978;SDS011;18502;43.574;1.276;2022-10-16T08:48:30;9.88;;;6.53;;
31978;SDS011;18502;43.574;1.276;2022-10-16T08:51:08;9.15;;;6.47;;
31978;SDS011;18502;43.574;1.276;2022-10-16T08:53:40;9.23;;;6.45;;
31978;SDS011;18502;43.574;1.276;2022-10-16T08:56:14;8.73;;;6.25;;
31978;SDS011;18502;43.574;1.276;2022-10-16T08:58:39;9.52;;;6.38;;
31978;SDS011;18502;43.574;1.276;2022-10-16T09:01:10;9.15;;;6.05;;
31978;SDS011;18502;43.574;1.276;2022-10-16T09:09:07;10.30;;;6.18;;
31978;SDS011;18502;43.574;1.276;2022-10-16T09:23:18;12.52;;;6.35;;
31978;SDS011;18502;43.574;1.276;2022-10-16T09:25:48;9.60;;;6.57;;
31978;SDS011;18502;43.574;1.276;2022-10-16T09:28:16;9.43;;;6.25;;
31978;SDS011;18502;43.574;1.276;2022-10-16T09:30:42;12.95;;;6.35;;
31978;SDS011;18502;43.574;1.276;2022-10-16T09:33:10;13.43;;;6.55;;
31978;SDS011;18502;43.574;1.276;2022-10-16T09:35:39;11.45;;;6.07;;
31978;SDS011;18502;43.574;1.276;2022-10-16T09:38:27;9.38;;;5.88;;
31978;SDS011;18502;43.574;1.276;2022-10-16T09:40:56;13.85;;;6.22;;
31978;SDS011;18502;43.574;1.276;2022-10-16T09:48:47;8.32;;;4.65;;
31978;SDS011;18502;43.574;1.276;2022-10-16T09:51:17;8.23;;;5.70;;
31978;SDS011;18502;43.574;1.276;2022-10-16T09:53:49;9.32;;;5.90;;
31978;SDS011;18502;43.574;1.276;2022-10-16T09:56:23;10.93;;;5.97;;
31978;SDS011;18502;43.574;1.276;2022-10-16T09:58:52;13.80;;;5.20;;
31978;SDS011;18502;43.574;1.276;2022-10-16T10:01:19;8.90;;;4.57;;
31978;SDS011;18502;43.574;1.276;2022-10-16T10:03:47;6.47;;;5.35;;
31978;SDS011;18502;43.574;1.276;2022-10-16T10:14:08;11.85;;;4.95;;
31978;SDS011;18502;43.574;1.276;2022-10-16T10:16:38;9.43;;;5.63;;
31978;SDS011;18502;43.574;1.276;2022-10-16T10:19:03;11.23;;;4.93;;
31978;SDS011;18502;43.574;1.276;2022-10-16T10:21:32;8.65;;;4.55;;
31978;SDS011;18502;43.574;1.276;2022-10-16T10:23:58;11.73;;;4.27;;
31978;SDS011;18502;43.574;1.276;2022-10-16T10:26:25;8.15;;;4.22;;
31978;SDS011;18502;43.574;1.276;2022-10-16T10:29:28;7.45;;;4.70;;
31978;SDS011;18502;43.574;1.276;2022-10-16T10:34:46;8.95;;;4.60;;
31978;SDS011;18502;43.574;1.276;2022-10-16T10:39:56;6.50;;;4.75;;
31978;SDS011;18502;43.574;1.276;2022-10-16T10:45:26;9.32;;;4.75;;
31978;SDS011;18502;43.574;1.276;2022-10-16T10:48:03;7.93;;;4.47;;
31978;SDS011;18502;43.574;1.276;2022-10-16T10:50:55;10.32;;;4.72;;
31978;SDS011;18502;43.574;1.276;2022-10-16T11:07:28;8.77;;;4.00;;
31978;SDS011;18502;43.574;1.276;2022-10-16T11:09:58;6.18;;;3.70;;
31978;SDS011;18502;43.574;1.276;2022-10-16T11:13:02;8.60;;;4.38;;
31978;SDS011;18502;43.574;1.276;2022-10-16T11:15:53;9.63;;;4.28;;
31978;SDS011;18502;43.574;1.276;2022-10-16T11:18:38;7.38;;;3.85;;
31978;SDS011;18502;43.574;1.276;2022-10-16T11:21:16;7.20;;;3.58;;
31978;SDS011;18502;43.574;1.276;2022-10-16T11:26:17;6.63;;;3.70;;
31978;SDS011;18502;43.574;1.276;2022-10-16T11:28:48;6.82;;;3.58;;
31978;SDS011;18502;43.574;1.276;2022-10-16T11:31:30;5.70;;;4.13;;
31978;SDS011;18502;43.574;1.276;2022-10-16T11:34:12;7.75;;;3.60;;
31978;SDS011;18502;43.574;1.276;2022-10-16T11:37:08;7.53;;;4.05;;
31978;SDS011;18502;43.574;1.276;2022-10-16T11:39:38;8.07;;;3.55;;
31978;SDS011;18502;43.574;1.276;2022-10-16T11:42:08;6.32;;;3.53;;
31978;SDS011;18502;43.574;1.276;2022-10-16T11:47:54;9.85;;;3.42;;
31978;SDS011;18502;43.574;1.276;2022-10-16T11:50:31;5.60;;;3.60;;
31978;SDS011;18502;43.574;1.276;2022-10-16T11:53:08;6.18;;;3.40;;
31978;SDS011;18502;43.574;1.276;2022-10-16T11:55:39;9.63;;;3.85;;
31978;SDS011;18502;43.574;1.276;2022-10-16T11:58:13;7.53;;;3.92;;
31978;SDS011;18502;43.574;1.276;2022-10-16T12:09:15;10.10;;;3.47;;
31978;SDS011;18502;43.574;1.276;2022-10-16T12:11:51;9.18;;;3.35;;
31978;SDS011;18502;43.574;1.276;2022-10-16T12:14:19;6.00;;;3.70;;
31978;SDS011;18502;43.574;1.276;2022-10-16T12:16:59;9.63;;;3.95;;
31978;SDS011;18502;43.574;1.276;2022-10-16T12:19:56;5.60;;;3.45;;
31978;SDS011;18502;43.574;1.276;2022-10-16T12:22:24;5.90;;;3.05;;
31978;SDS011;18502;43.574;1.276;2022-10-16T12:24:54;5.88;;;3.20;;
31978;SDS011;18502;43.574;1.276;2022-10-16T12:27:25;9.63;;;3.42;;
31978;SDS011;18502;43.574;1.276;2022-10-16T12:30:03;10.45;;;3.55;;
31978;SDS011;18502;43.574;1.276;2022-10-16T12:32:37;7.47;;;3.60;;
31978;SDS011;18502;43.574;1.276;2022-10-16T12:35:05;7.15;;;3.20;;
31978;SDS011;18502;43.574;1.276;2022-10-16T12:37:42;12.80;;;3.90;;
31978;SDS011;18502;43.574;1.276;2022-10-16T12:40:29;9.55;;;3.03;;
31978;SDS011;18502;43.574;1.276;2022-10-16T12:42:57;4.75;;;2.90;;
31978;SDS011;18502;43.574;1.276;2022-10-16T12:45:27;8.52;;;3.30;;
31978;SDS011;18502;43.574;1.276;2022-10-16T12:47:59;8.27;;;3.40;;
31978;SDS011;18502;43.574;1.276;2022-10-16T12:50:29;9.02;;;2.97;;
31978;SDS011;18502;43.574;1.276;2022-10-16T12:52:58;9.77;;;3.17;;
31978;SDS011;18502;43.574;1.276;2022-10-16T12:55:25;8.20;;;2.72;;
31978;SDS011;18502;43.574;1.276;2022-10-16T13:20:42;4.80;;;2.67;;
31978;SDS011;18502;43.574;1.276;2022-10-16T13:23:13;4.57;;;2.50;;
31978;SDS011;18502;43.574;1.276;2022-10-16T13:29:11;6.03;;;2.55;;
31978;SDS011;18502;43.574;1.276;2022-10-16T13:31:38;6.03;;;2.55;;
31978;SDS011;18502;43.574;1.276;2022-10-16T13:34:05;6.22;;;2.25;;
31978;SDS011;18502;43.574;1.276;2022-10-16T13:36:43;7.07;;;2.10;;
31978;SDS011;18502;43.574;1.276;2022-10-16T13:39:14;6.95;;;1.85;;
31978;SDS011;18502;43.574;1.276;2022-10-16T13:41:42;8.30;;;2.30;;
31978;SDS011;18502;43.574;1.276;2022-10-16T13:44:15;5.90;;;2.28;;
31978;SDS011;18502;43.574;1.276;2022-10-16T13:46:45;4.70;;;1.73;;
31978;SDS011;18502;43.574;1.276;2022-10-16T13:49:23;7.10;;;2.00;;
31978;SDS011;18502;43.574;1.276;2022-10-16T13:51:55;5.45;;;2.10;;
31978;SDS011;18502;43.574;1.276;2022-10-16T13:54:25;3.88;;;1.95;;
31978;SDS011;18502;43.574;1.276;2022-10-16T13:56:53;5.25;;;1.92;;
31978;SDS011;18502;43.574;1.276;2022-10-16T13:59:41;6.40;;;2.60;;
31978;SDS011;18502;43.574;1.276;2022-10-16T14:04:41;4.60;;;2.00;;
31978;SDS011;18502;43.574;1.276;2022-10-16T14:07:12;4.55;;;1.98;;
31978;SDS011;18502;43.574;1.276;2022-10-16T14:09:40;6.18;;;1.77;;
31978;SDS011;18502;43.574;1.276;2022-10-16T14:12:10;7.53;;;2.20;;
31978;SDS011;18502;43.574;1.276;2022-10-16T14:14:41;7.35;;;1.88;;
31978;SDS011;18502;43.574;1.276;2022-10-16T14:17:43;4.72;;;2.00;;
31978;SDS011;18502;43.574;1.276;2022-10-16T14:20:03;8.25;;;1.90;;
31978;SDS011;18502;43.574;1.276;2022-10-16T14:27:44;6.30;;;2.20;;
31978;SDS011;18502;43.574;1.276;2022-10-16T14:30:20;6.50;;;1.90;;
31978;SDS011;18502;43.574;1.276;2022-10-16T14:33:21;3.88;;;2.08;;
31978;SDS011;18502;43.574;1.276;2022-10-16T14:36:00;4.13;;;1.88;;
31978;SDS011;18502;43.574;1.276;2022-10-16T14:38:28;5.18;;;2.47;;
31978;SDS011;18502;43.574;1.276;2022-10-16T14:40:54;10.98;;;2.60;;
31978;SDS011;18502;43.574;1.276;2022-10-16T14:46:00;6.90;;;2.75;;
31978;SDS011;18502;43.574;1.276;2022-10-16T14:48:28;7.80;;;2.55;;
31978;SDS011;18502;43.574;1.276;2022-10-16T14:50:55;5.45;;;2.30;;
31978;SDS011;18502;43.574;1.276;2022-10-16T14:53:20;10.27;;;2.85;;
31978;SDS011;18502;43.574;1.276;2022-10-16T14:55:46;7.72;;;2.40;;
31978;SDS011;18502;43.574;1.276;2022-10-16T14:58:16;9.32;;;2.88;;
31978;SDS011;18502;43.574;1.276;2022-10-16T15:00:45;5.68;;;2.00;;
31978;SDS011;18502;43.574;1.276;2022-10-16T15:03:11;8.90;;;2.72;;
31978;SDS011;18502;43.574;1.276;2022-10-16T15:05:37;10.82;;;2.83;;
31978;SDS011;18502;43.574;1.276;2022-10-16T15:08:03;6.63;;;2.40;;
31978;SDS011;18502;43.574;1.276;2022-10-16T15:10:29;7.32;;;1.92;;
31978;SDS011;18502;43.574;1.276;2022-10-16T15:12:58;5.15;;;1.70;;
31978;SDS011;18502;43.574;1.276;2022-10-16T15:15:57;8.45;;;2.50;;
31978;SDS011;18502;43.574;1.276;2022-10-16T15:18:17;5.25;;;1.92;;
31978;SDS011;18502;43.574;1.276;2022-10-16T15:20:50;8.80;;;2.30;;
31978;SDS011;18502;43.574;1.276;2022-10-16T15:23:20;5.55;;;2.00;;
31978;SDS011;18502;43.574;1.276;2022-10-16T15:25:51;6.28;;;1.95;;
31978;SDS011;18502;43.574;1.276;2022-10-16T15:28:18;7.35;;;1.80;;
31978;SDS011;18502;43.574;1.276;2022-10-16T15:30:45;6.93;;;2.33;;
31978;SDS011;18502;43.574;1.276;2022-10-16T15:33:15;6.05;;;2.00;;
31978;SDS011;18502;43.574;1.276;2022-10-16T15:35:42;7.03;;;1.65;;
31978;SDS011;18502;43.574;1.276;2022-10-16T15:38:11;5.50;;;1.77;;
31978;SDS011;18502;43.574;1.276;2022-10-16T15:40:38;7.35;;;2.08;;
31978;SDS011;18502;43.574;1.276;2022-10-16T15:43:05;5.93;;;1.90;;
31978;SDS011;18502;43.574;1.276;2022-10-16T15:45:31;9.52;;;2.35;;
31978;SDS011;18502;43.574;1.276;2022-10-16T15:47:56;5.45;;;1.80;;
31978;SDS011;18502;43.574;1.276;2022-10-16T15:50:22;10.35;;;2.40;;
31978;SDS011;18502;43.574;1.276;2022-10-16T15:52:48;5.55;;;1.85;;
31978;SDS011;18502;43.574;1.276;2022-10-16T15:55:15;6.85;;;2.45;;
31978;SDS011;18502;43.574;1.276;2022-10-16T15:57:42;7.00;;;2.20;;
31978;SDS011;18502;43.574;1.276;2022-10-16T16:00:09;5.50;;;1.60;;
31978;SDS011;18502;43.574;1.276;2022-10-16T16:02:41;5.78;;;2.42;;
31978;SDS011;18502;43.574;1.276;2022-10-16T16:05:08;11.05;;;2.85;;
31978;SDS011;18502;43.574;1.276;2022-10-16T16:07:35;7.45;;;2.40;;
31978;SDS011;18502;43.574;1.276;2022-10-16T16:10:03;8.88;;;2.58;;
31978;SDS011;18502;43.574;1.276;2022-10-16T16:12:31;6.20;;;2.13;;
31978;SDS011;18502;43.574;1.276;2022-10-16T16:14:57;6.10;;;1.95;;
31978;SDS011;18502;43.574;1.276;2022-10-16T16:17:23;7.38;;;2.50;;
31978;SDS011;18502;43.574;1.276;2022-10-16T16:19:49;9.82;;;2.33;;
31978;SDS011;18502;43.574;1.276;2022-10-16T16:22:15;2.88;;;2.13;;
31978;SDS011;18502;43.574;1.276;2022-10-16T16:24:42;8.48;;;2.83;;
31978;SDS011;18502;43.574;1.276;2022-10-16T16:27:07;7.55;;;2.30;;
31978;SDS011;18502;43.574;1.276;2022-10-16T16:29:33;5.03;;;2.15;;
31978;SDS011;18502;43.574;1.276;2022-10-16T16:31:59;9.82;;;3.17;;
31978;SDS011;18502;43.574;1.276;2022-10-16T16:34:26;7.60;;;2.70;;
31978;SDS011;18502;43.574;1.276;2022-10-16T16:36:53;9.50;;;2.97;;
31978;SDS011;18502;43.574;1.276;2022-10-16T16:39:20;10.48;;;2.50;;
31978;SDS011;18502;43.574;1.276;2022-10-16T16:41:46;6.05;;;2.63;;
31978;SDS011;18502;43.574;1.276;2022-10-16T16:44:12;11.32;;;3.38;;
31978;SDS011;18502;43.574;1.276;2022-10-16T16:46:39;9.13;;;2.50;;
31978;SDS011;18502;43.574;1.276;2022-10-16T16:49:05;8.23;;;2.42;;
31978;SDS011;18502;43.574;1.276;2022-10-16T16:51:32;7.18;;;2.92;;
31978;SDS011;18502;43.574;1.276;2022-10-16T16:53:58;9.23;;;3.08;;
31978;SDS011;18502;43.574;1.276;2022-10-16T16:56:25;9.70;;;2.80;;
31978;SDS011;18502;43.574;1.276;2022-10-16T16:58:52;8.43;;;3.08;;